Flight Track Log - Related Links

Times and Time Zones

All times are in EDT time to prevent confusion due to time zone crossing. See the N147SW flight status page for this flight to view local times or setup timezone preferences in your user account.


Time Position Orientation Groundspeed Altitude Reporting Facility
EDT Latitude Longitude Course Direction KTS MPH feet Rate Location/Type
Tue 04:16:25 PM 40.8167 -74.1333 77° East 225 259 1,600  Level New York TRACON
Tue 04:17:19 PM 40.8167 -74.2167 270° West 240 276 4,900 2,316 Climbing New York TRACON
Tue 04:18:19 PM 40.8667 -74.2667 323° Northwest 290 334 6,000 524 Climbing New York TRACON
Tue 04:19:25 PM 40.9500 -74.2333 17° North 284 327 6,000 333 Level New York TRACON
Tue 04:20:25 PM 41.0333 -74.2000 17° North 273 314 6,700 526 Climbing New York TRACON
Tue 04:21:00 PM 40.8506 -74.0580 77° East  Level FlightAware Approximate
Tue 04:21:19 PM 41.1000 -74.1667 21° North 277 319 7,000  Level New York TRACON
Tue 04:23:21 PM 41.1511 -73.9731 71° East 283 326 11,800 2,230 Climbing Boston Center
Tue 04:24:22 PM 41.1692 -73.8575 78° East 320 368 13,800 2,112 Climbing Boston Center
Tue 04:25:26 PM 41.1886 -73.7200 79° East 349 402 16,200 1,536 Climbing Boston Center
Tue 04:26:27 PM 41.2078 -73.5789 80° East 386 444 17,000 1,033 Climbing Boston Center
Tue 04:27:28 PM 41.2256 -73.4097 82° East 429 494 18,300 992 Climbing Boston Center
Tue 04:28:28 PM 41.2358 -73.2833 84° East 430 495 19,000 339 Climbing Boston Center
Tue 04:29:32 PM 41.2528 -73.0789 84° East 456 525 19,000  Level Boston Center
Tue 04:30:33 PM 41.2664 -72.9017 84° East 473 544 19,000  Level Boston Center
Tue 04:31:34 PM 41.2814 -72.7117 84° East 473 544 19,000 -339 Level Boston Center
Tue 04:32:37 PM 41.2950 -72.5369 84° East 477 549 18,300 -1,340 Descending Boston Center
Tue 04:33:17 PM 41.3053 -72.4197 83° East 470 541 16,700 -2,361 Descending Boston Center
Tue 04:33:38 PM 41.3075 -72.3650 87° East 470 541 15,900 -2,459 Descending Boston Center
Tue 04:34:18 PM 41.3167 -72.2544 84° East 448 516 14,200 -2,656 Descending Boston Center
Tue 04:34:39 PM 41.3208 -72.1925 85° East 446 513 13,200 -2,754 Descending Boston Center
Tue 04:35:19 PM 41.3286 -72.0864 84° East 424 488 11,400 -2,459 Descending Boston Center
Tue 04:35:40 PM 41.3308 -72.0403 86° East 419 482 10,700 -1,200 Descending Boston Center
Tue 04:36:19 PM 41.3358 -71.9511 86° East 331 381 10,200 -1,440 Descending Boston Center
Tue 04:37:20 PM 41.3425 -71.8361 86° East 302 348 8,300 -1,742 Descending Boston Center
Tue 04:38:23 PM 41.4006 -71.7656 42° Northeast 274 315 6,600 -1,210 Descending Boston Center
Tue 04:39:24 PM 41.4633 -71.7139 32° Northeast 266 306 5,800 -1,409 Descending Boston Center
Tue 04:40:18 PM 41.5208 -71.6661 32° Northeast 267 307 3,900 -1,722 Descending Boston Center
Tue 04:41:19 PM 41.5761 -71.5972 43° Northeast 259 298 2,500 -942 Descending Boston Center
Tue 04:42:19 PM 41.6122 -71.5269 55° Northeast 204 235 2,000 -694 Descending Boston Center
Tue 04:43:20 PM 41.6242 -71.4592 77° East 179 206 1,100 -885 Descending Boston Center

Login

Don't have an account? Register now (free) for customized features, flight alerts, and more!